sensor_id;sensor_type;location;lat;lon;timestamp;P1;durP1;ratioP1;P2;durP2;ratioP2
14923;SDS011;7554;43.600;1.480;2023-03-31T00:02:11;5.80;;;2.40;;
14923;SDS011;7554;43.600;1.480;2023-03-31T00:04:39;7.27;;;2.70;;
14923;SDS011;7554;43.600;1.480;2023-03-31T00:07:11;7.90;;;2.50;;
14923;SDS011;7554;43.600;1.480;2023-03-31T00:09:40;6.90;;;2.47;;
14923;SDS011;7554;43.600;1.480;2023-03-31T00:12:11;5.73;;;2.20;;
14923;SDS011;7554;43.600;1.480;2023-03-31T00:14:40;7.20;;;2.40;;
14923;SDS011;7554;43.600;1.480;2023-03-31T00:17:07;8.77;;;2.70;;
14923;SDS011;7554;43.600;1.480;2023-03-31T00:19:34;5.20;;;2.47;;
14923;SDS011;7554;43.600;1.480;2023-03-31T00:22:02;4.20;;;1.90;;
14923;SDS011;7554;43.600;1.480;2023-03-31T00:24:30;8.30;;;2.27;;
14923;SDS011;7554;43.600;1.480;2023-03-31T00:26:58;8.67;;;2.40;;
14923;SDS011;7554;43.600;1.480;2023-03-31T00:29:27;6.73;;;2.43;;
14923;SDS011;7554;43.600;1.480;2023-03-31T00:31:55;5.97;;;2.50;;
14923;SDS011;7554;43.600;1.480;2023-03-31T00:34:23;7.57;;;2.77;;
14923;SDS011;7554;43.600;1.480;2023-03-31T00:36:51;5.70;;;2.20;;
14923;SDS011;7554;43.600;1.480;2023-03-31T00:39:20;6.10;;;1.83;;
14923;SDS011;7554;43.600;1.480;2023-03-31T00:41:48;6.13;;;2.10;;
14923;SDS011;7554;43.600;1.480;2023-03-31T00:44:16;5.77;;;2.23;;
14923;SDS011;7554;43.600;1.480;2023-03-31T00:46:50;6.13;;;2.40;;
14923;SDS011;7554;43.600;1.480;2023-03-31T00:49:22;7.67;;;2.50;;
14923;SDS011;7554;43.600;1.480;2023-03-31T00:51:54;5.73;;;2.37;;
14923;SDS011;7554;43.600;1.480;2023-03-31T00:54:26;5.93;;;2.03;;
14923;SDS011;7554;43.600;1.480;2023-03-31T00:56:57;6.07;;;2.17;;
14923;SDS011;7554;43.600;1.480;2023-03-31T00:59:27;5.90;;;2.20;;
14923;SDS011;7554;43.600;1.480;2023-03-31T01:01:58;5.53;;;1.87;;
14923;SDS011;7554;43.600;1.480;2023-03-31T01:04:29;7.53;;;2.13;;
14923;SDS011;7554;43.600;1.480;2023-03-31T01:07:02;6.27;;;2.10;;
14923;SDS011;7554;43.600;1.480;2023-03-31T01:09:36;6.40;;;2.60;;
14923;SDS011;7554;43.600;1.480;2023-03-31T01:12:06;12.47;;;2.53;;
14923;SDS011;7554;43.600;1.480;2023-03-31T01:14:36;5.67;;;2.20;;
14923;SDS011;7554;43.600;1.480;2023-03-31T01:17:04;5.33;;;2.03;;
14923;SDS011;7554;43.600;1.480;2023-03-31T01:19:37;7.93;;;2.30;;
14923;SDS011;7554;43.600;1.480;2023-03-31T01:25:28;5.73;;;2.07;;
14923;SDS011;7554;43.600;1.480;2023-03-31T01:28:21;5.23;;;2.00;;
14923;SDS011;7554;43.600;1.480;2023-03-31T01:34:11;6.37;;;2.17;;
14923;SDS011;7554;43.600;1.480;2023-03-31T01:40:23;9.23;;;2.10;;
14923;SDS011;7554;43.600;1.480;2023-03-31T01:43:01;4.60;;;2.10;;
14923;SDS011;7554;43.600;1.480;2023-03-31T01:45:36;10.63;;;2.17;;
14923;SDS011;7554;43.600;1.480;2023-03-31T01:48:12;5.97;;;2.37;;
14923;SDS011;7554;43.600;1.480;2023-03-31T01:50:44;6.13;;;2.20;;
14923;SDS011;7554;43.600;1.480;2023-03-31T01:53:15;5.13;;;2.10;;
14923;SDS011;7554;43.600;1.480;2023-03-31T01:55:51;9.20;;;2.10;;
14923;SDS011;7554;43.600;1.480;2023-03-31T01:58:27;6.43;;;2.37;;
14923;SDS011;7554;43.600;1.480;2023-03-31T02:01:01;6.73;;;2.30;;
14923;SDS011;7554;43.600;1.480;2023-03-31T02:03:32;8.40;;;2.33;;
14923;SDS011;7554;43.600;1.480;2023-03-31T02:06:04;4.47;;;2.23;;
14923;SDS011;7554;43.600;1.480;2023-03-31T02:08:37;7.93;;;2.30;;
14923;SDS011;7554;43.600;1.480;2023-03-31T02:11:08;5.20;;;2.77;;
14923;SDS011;7554;43.600;1.480;2023-03-31T02:13:36;8.30;;;2.40;;
14923;SDS011;7554;43.600;1.480;2023-03-31T02:16:09;7.73;;;2.50;;
14923;SDS011;7554;43.600;1.480;2023-03-31T02:18:41;7.13;;;2.23;;
14923;SDS011;7554;43.600;1.480;2023-03-31T02:21:09;5.07;;;2.27;;
14923;SDS011;7554;43.600;1.480;2023-03-31T02:23:38;8.67;;;2.80;;
14923;SDS011;7554;43.600;1.480;2023-03-31T02:26:07;6.00;;;2.03;;
14923;SDS011;7554;43.600;1.480;2023-03-31T02:28:39;10.00;;;2.80;;
14923;SDS011;7554;43.600;1.480;2023-03-31T02:31:09;6.93;;;2.30;;
14923;SDS011;7554;43.600;1.480;2023-03-31T02:33:46;6.10;;;2.60;;
14923;SDS011;7554;43.600;1.480;2023-03-31T02:36:14;6.30;;;2.30;;
14923;SDS011;7554;43.600;1.480;2023-03-31T02:38:42;4.70;;;2.27;;
14923;SDS011;7554;43.600;1.480;2023-03-31T02:41:16;7.20;;;2.30;;
14923;SDS011;7554;43.600;1.480;2023-03-31T02:43:44;8.03;;;3.00;;
14923;SDS011;7554;43.600;1.480;2023-03-31T02:46:11;5.63;;;2.20;;
14923;SDS011;7554;43.600;1.480;2023-03-31T02:48:39;9.77;;;2.53;;
14923;SDS011;7554;43.600;1.480;2023-03-31T03:00:00;6.00;;;2.50;;
14923;SDS011;7554;43.600;1.480;2023-03-31T03:02:35;11.80;;;2.60;;
14923;SDS011;7554;43.600;1.480;2023-03-31T03:05:21;5.67;;;2.30;;
14923;SDS011;7554;43.600;1.480;2023-03-31T03:08:01;7.17;;;2.40;;
14923;SDS011;7554;43.600;1.480;2023-03-31T03:10:40;6.33;;;2.20;;
14923;SDS011;7554;43.600;1.480;2023-03-31T03:13:20;9.43;;;2.60;;
14923;SDS011;7554;43.600;1.480;2023-03-31T03:15:55;9.90;;;2.73;;
14923;SDS011;7554;43.600;1.480;2023-03-31T03:18:26;6.80;;;2.30;;
14923;SDS011;7554;43.600;1.480;2023-03-31T03:20:54;6.83;;;2.00;;
14923;SDS011;7554;43.600;1.480;2023-03-31T03:23:21;6.27;;;2.97;;
14923;SDS011;7554;43.600;1.480;2023-03-31T03:25:49;11.80;;;2.93;;
14923;SDS011;7554;43.600;1.480;2023-03-31T03:28:16;7.87;;;2.80;;
14923;SDS011;7554;43.600;1.480;2023-03-31T03:30:45;8.77;;;2.47;;
14923;SDS011;7554;43.600;1.480;2023-03-31T03:33:12;10.23;;;2.67;;
14923;SDS011;7554;43.600;1.480;2023-03-31T03:35:41;8.73;;;2.43;;
14923;SDS011;7554;43.600;1.480;2023-03-31T03:38:08;8.13;;;2.80;;
14923;SDS011;7554;43.600;1.480;2023-03-31T03:40:36;9.53;;;2.87;;
14923;SDS011;7554;43.600;1.480;2023-03-31T03:43:03;8.33;;;2.60;;
14923;SDS011;7554;43.600;1.480;2023-03-31T03:45:30;10.57;;;2.97;;
14923;SDS011;7554;43.600;1.480;2023-03-31T03:47:59;5.60;;;2.47;;
14923;SDS011;7554;43.600;1.480;2023-03-31T03:50:26;4.43;;;2.33;;
14923;SDS011;7554;43.600;1.480;2023-03-31T03:52:53;6.97;;;2.40;;
14923;SDS011;7554;43.600;1.480;2023-03-31T03:55:21;9.50;;;2.67;;
14923;SDS011;7554;43.600;1.480;2023-03-31T03:57:48;9.20;;;2.60;;
14923;SDS011;7554;43.600;1.480;2023-03-31T04:00:15;8.47;;;2.80;;
14923;SDS011;7554;43.600;1.480;2023-03-31T04:02:43;7.73;;;2.10;;
14923;SDS011;7554;43.600;1.480;2023-03-31T04:05:12;9.17;;;2.80;;
14923;SDS011;7554;43.600;1.480;2023-03-31T04:07:39;6.87;;;2.37;;
14923;SDS011;7554;43.600;1.480;2023-03-31T04:10:07;7.80;;;2.73;;
14923;SDS011;7554;43.600;1.480;2023-03-31T04:12:35;8.87;;;2.40;;
14923;SDS011;7554;43.600;1.480;2023-03-31T04:15:02;8.57;;;2.57;;
14923;SDS011;7554;43.600;1.480;2023-03-31T04:17:31;6.90;;;3.17;;
14923;SDS011;7554;43.600;1.480;2023-03-31T04:19:59;5.03;;;2.47;;
14923;SDS011;7554;43.600;1.480;2023-03-31T04:22:31;5.83;;;2.57;;
14923;SDS011;7554;43.600;1.480;2023-03-31T04:25:05;7.73;;;2.40;;
14923;SDS011;7554;43.600;1.480;2023-03-31T04:27:40;4.97;;;2.53;;
14923;SDS011;7554;43.600;1.480;2023-03-31T04:30:11;5.10;;;2.50;;
14923;SDS011;7554;43.600;1.480;2023-03-31T04:32:46;7.80;;;2.90;;
14923;SDS011;7554;43.600;1.480;2023-03-31T04:35:15;6.83;;;2.57;;
14923;SDS011;7554;43.600;1.480;2023-03-31T04:37:46;7.03;;;2.40;;
14923;SDS011;7554;43.600;1.480;2023-03-31T04:40:14;7.70;;;2.47;;
14923;SDS011;7554;43.600;1.480;2023-03-31T04:42:42;12.67;;;2.90;;
14923;SDS011;7554;43.600;1.480;2023-03-31T04:45:09;12.03;;;3.00;;
14923;SDS011;7554;43.600;1.480;2023-03-31T04:47:37;7.23;;;2.50;;
14923;SDS011;7554;43.600;1.480;2023-03-31T04:50:05;5.37;;;2.50;;
14923;SDS011;7554;43.600;1.480;2023-03-31T04:52:34;7.10;;;2.90;;
14923;SDS011;7554;43.600;1.480;2023-03-31T04:55:03;5.63;;;2.10;;
14923;SDS011;7554;43.600;1.480;2023-03-31T04:57:31;5.53;;;2.47;;
14923;SDS011;7554;43.600;1.480;2023-03-31T05:00:00;7.27;;;2.70;;
14923;SDS011;7554;43.600;1.480;2023-03-31T05:02:31;7.35;;;3.17;;
14923;SDS011;7554;43.600;1.480;2023-03-31T05:04:58;7.87;;;2.83;;
14923;SDS011;7554;43.600;1.480;2023-03-31T05:07:25;10.80;;;3.33;;
14923;SDS011;7554;43.600;1.480;2023-03-31T05:09:53;11.10;;;2.70;;
14923;SDS011;7554;43.600;1.480;2023-03-31T05:12:22;9.93;;;2.90;;
14923;SDS011;7554;43.600;1.480;2023-03-31T05:14:50;6.50;;;2.80;;
14923;SDS011;7554;43.600;1.480;2023-03-31T05:17:18;7.00;;;3.03;;
14923;SDS011;7554;43.600;1.480;2023-03-31T05:19:46;6.93;;;2.70;;
14923;SDS011;7554;43.600;1.480;2023-03-31T05:22:14;7.47;;;3.00;;
14923;SDS011;7554;43.600;1.480;2023-03-31T05:24:44;12.57;;;2.77;;
14923;SDS011;7554;43.600;1.480;2023-03-31T05:27:12;4.17;;;2.20;;
14923;SDS011;7554;43.600;1.480;2023-03-31T05:29:41;9.00;;;2.53;;
14923;SDS011;7554;43.600;1.480;2023-03-31T05:32:08;9.10;;;3.20;;
14923;SDS011;7554;43.600;1.480;2023-03-31T05:34:35;8.40;;;2.87;;
14923;SDS011;7554;43.600;1.480;2023-03-31T05:37:03;13.47;;;3.33;;
14923;SDS011;7554;43.600;1.480;2023-03-31T05:39:30;6.77;;;3.00;;
14923;SDS011;7554;43.600;1.480;2023-03-31T05:41:57;7.93;;;2.83;;
14923;SDS011;7554;43.600;1.480;2023-03-31T05:44:25;10.73;;;2.30;;
14923;SDS011;7554;43.600;1.480;2023-03-31T05:46:54;8.60;;;3.30;;
14923;SDS011;7554;43.600;1.480;2023-03-31T05:49:21;8.63;;;2.80;;
14923;SDS011;7554;43.600;1.480;2023-03-31T05:51:48;14.23;;;3.23;;
14923;SDS011;7554;43.600;1.480;2023-03-31T05:54:16;6.03;;;2.67;;
14923;SDS011;7554;43.600;1.480;2023-03-31T05:56:43;8.87;;;2.77;;
14923;SDS011;7554;43.600;1.480;2023-03-31T05:59:10;7.00;;;2.70;;
14923;SDS011;7554;43.600;1.480;2023-03-31T06:01:37;8.10;;;2.50;;
14923;SDS011;7554;43.600;1.480;2023-03-31T06:04:06;8.23;;;2.97;;
14923;SDS011;7554;43.600;1.480;2023-03-31T06:06:33;8.57;;;2.70;;
14923;SDS011;7554;43.600;1.480;2023-03-31T06:09:02;8.40;;;2.90;;
14923;SDS011;7554;43.600;1.480;2023-03-31T06:11:30;9.97;;;2.97;;
14923;SDS011;7554;43.600;1.480;2023-03-31T06:13:58;8.93;;;2.93;;
14923;SDS011;7554;43.600;1.480;2023-03-31T06:16:25;7.17;;;2.97;;
14923;SDS011;7554;43.600;1.480;2023-03-31T06:18:53;7.80;;;2.90;;
14923;SDS011;7554;43.600;1.480;2023-03-31T06:21:21;10.03;;;3.43;;
14923;SDS011;7554;43.600;1.480;2023-03-31T06:23:49;10.30;;;3.20;;
14923;SDS011;7554;43.600;1.480;2023-03-31T06:26:19;9.43;;;3.30;;
14923;SDS011;7554;43.600;1.480;2023-03-31T06:28:46;17.50;;;3.77;;
14923;SDS011;7554;43.600;1.480;2023-03-31T06:31:14;11.73;;;3.90;;
14923;SDS011;7554;43.600;1.480;2023-03-31T06:33:43;9.90;;;3.60;;
14923;SDS011;7554;43.600;1.480;2023-03-31T06:36:11;11.20;;;3.73;;
14923;SDS011;7554;43.600;1.480;2023-03-31T06:38:41;11.47;;;3.37;;
14923;SDS011;7554;43.600;1.480;2023-03-31T06:41:10;10.53;;;3.50;;
14923;SDS011;7554;43.600;1.480;2023-03-31T06:43:38;11.00;;;3.57;;
14923;SDS011;7554;43.600;1.480;2023-03-31T06:46:06;12.80;;;2.83;;
14923;SDS011;7554;43.600;1.480;2023-03-31T06:48:34;10.37;;;3.57;;
14923;SDS011;7554;43.600;1.480;2023-03-31T06:51:02;11.23;;;3.80;;
14923;SDS011;7554;43.600;1.480;2023-03-31T06:53:31;10.47;;;3.47;;
14923;SDS011;7554;43.600;1.480;2023-03-31T06:55:59;11.20;;;3.10;;
14923;SDS011;7554;43.600;1.480;2023-03-31T06:58:27;10.60;;;3.47;;
14923;SDS011;7554;43.600;1.480;2023-03-31T07:00:54;13.00;;;3.67;;
14923;SDS011;7554;43.600;1.480;2023-03-31T07:03:22;15.40;;;3.70;;
14923;SDS011;7554;43.600;1.480;2023-03-31T07:05:49;12.33;;;3.80;;
14923;SDS011;7554;43.600;1.480;2023-03-31T07:08:18;10.03;;;3.53;;
14923;SDS011;7554;43.600;1.480;2023-03-31T07:10:45;24.83;;;6.07;;
14923;SDS011;7554;43.600;1.480;2023-03-31T07:13:15;20.50;;;5.70;;
14923;SDS011;7554;43.600;1.480;2023-03-31T07:15:45;22.33;;;4.83;;
14923;SDS011;7554;43.600;1.480;2023-03-31T07:18:13;22.93;;;4.43;;
14923;SDS011;7554;43.600;1.480;2023-03-31T07:20:40;19.77;;;4.60;;
14923;SDS011;7554;43.600;1.480;2023-03-31T07:23:08;25.50;;;5.23;;
14923;SDS011;7554;43.600;1.480;2023-03-31T07:25:35;26.70;;;4.87;;
14923;SDS011;7554;43.600;1.480;2023-03-31T07:28:03;22.27;;;4.40;;
14923;SDS011;7554;43.600;1.480;2023-03-31T07:30:32;18.20;;;5.00;;
14923;SDS011;7554;43.600;1.480;2023-03-31T07:33:00;19.10;;;4.10;;
14923;SDS011;7554;43.600;1.480;2023-03-31T07:35:27;24.93;;;4.63;;
14923;SDS011;7554;43.600;1.480;2023-03-31T07:37:54;22.57;;;4.27;;
14923;SDS011;7554;43.600;1.480;2023-03-31T07:40:22;23.13;;;5.03;;
14923;SDS011;7554;43.600;1.480;2023-03-31T07:42:51;18.57;;;4.20;;
14923;SDS011;7554;43.600;1.480;2023-03-31T07:45:20;21.03;;;3.83;;
14923;SDS011;7554;43.600;1.480;2023-03-31T07:47:50;22.33;;;4.23;;
14923;SDS011;7554;43.600;1.480;2023-03-31T07:50:18;25.07;;;4.40;;
14923;SDS011;7554;43.600;1.480;2023-03-31T07:52:46;22.67;;;5.03;;
14923;SDS011;7554;43.600;1.480;2023-03-31T07:55:13;26.83;;;4.80;;
14923;SDS011;7554;43.600;1.480;2023-03-31T07:57:41;25.87;;;5.57;;
14923;SDS011;7554;43.600;1.480;2023-03-31T08:00:10;19.40;;;4.00;;
14923;SDS011;7554;43.600;1.480;2023-03-31T08:02:39;15.80;;;4.17;;
14923;SDS011;7554;43.600;1.480;2023-03-31T08:05:09;20.53;;;3.97;;
14923;SDS011;7554;43.600;1.480;2023-03-31T08:07:38;18.33;;;4.13;;
14923;SDS011;7554;43.600;1.480;2023-03-31T08:10:08;22.67;;;5.13;;
14923;SDS011;7554;43.600;1.480;2023-03-31T08:12:38;21.77;;;4.17;;
14923;SDS011;7554;43.600;1.480;2023-03-31T08:15:06;17.50;;;3.90;;
14923;SDS011;7554;43.600;1.480;2023-03-31T08:17:34;16.13;;;4.20;;
14923;SDS011;7554;43.600;1.480;2023-03-31T08:20:01;22.33;;;4.83;;
14923;SDS011;7554;43.600;1.480;2023-03-31T08:22:33;22.47;;;4.60;;
14923;SDS011;7554;43.600;1.480;2023-03-31T08:25:00;17.50;;;4.47;;
14923;SDS011;7554;43.600;1.480;2023-03-31T08:27:31;21.13;;;4.40;;
14923;SDS011;7554;43.600;1.480;2023-03-31T08:29:59;20.67;;;4.17;;
14923;SDS011;7554;43.600;1.480;2023-03-31T08:32:29;24.13;;;5.07;;
14923;SDS011;7554;43.600;1.480;2023-03-31T08:34:56;19.07;;;3.97;;
14923;SDS011;7554;43.600;1.480;2023-03-31T08:37:26;20.37;;;4.60;;
14923;SDS011;7554;43.600;1.480;2023-03-31T08:39:55;18.90;;;4.03;;
14923;SDS011;7554;43.600;1.480;2023-03-31T08:42:24;27.23;;;5.40;;
14923;SDS011;7554;43.600;1.480;2023-03-31T08:45:02;18.47;;;4.63;;
14923;SDS011;7554;43.600;1.480;2023-03-31T08:47:35;23.57;;;4.47;;
14923;SDS011;7554;43.600;1.480;2023-03-31T08:50:05;21.93;;;4.47;;
14923;SDS011;7554;43.600;1.480;2023-03-31T08:52:38;25.70;;;5.67;;
14923;SDS011;7554;43.600;1.480;2023-03-31T08:55:12;29.17;;;6.33;;
14923;SDS011;7554;43.600;1.480;2023-03-31T08:57:48;26.10;;;5.37;;
14923;SDS011;7554;43.600;1.480;2023-03-31T09:00:20;22.97;;;5.10;;
14923;SDS011;7554;43.600;1.480;2023-03-31T09:02:49;30.63;;;5.83;;
14923;SDS011;7554;43.600;1.480;2023-03-31T09:05:34;29.10;;;6.00;;
14923;SDS011;7554;43.600;1.480;2023-03-31T09:08:10;34.33;;;9.63;;
14923;SDS011;7554;43.600;1.480;2023-03-31T09:10:49;25.97;;;6.20;;
14923;SDS011;7554;43.600;1.480;2023-03-31T09:13:28;29.43;;;5.90;;
14923;SDS011;7554;43.600;1.480;2023-03-31T09:16:11;25.87;;;8.10;;
14923;SDS011;7554;43.600;1.480;2023-03-31T09:18:41;32.00;;;8.70;;
14923;SDS011;7554;43.600;1.480;2023-03-31T09:21:12;30.40;;;5.93;;
14923;SDS011;7554;43.600;1.480;2023-03-31T09:23:46;23.73;;;4.83;;
14923;SDS011;7554;43.600;1.480;2023-03-31T09:26:24;25.17;;;4.77;;
14923;SDS011;7554;43.600;1.480;2023-03-31T09:28:57;22.10;;;4.73;;
14923;SDS011;7554;43.600;1.480;2023-03-31T09:31:27;24.37;;;5.13;;
14923;SDS011;7554;43.600;1.480;2023-03-31T09:33:56;31.07;;;6.33;;
14923;SDS011;7554;43.600;1.480;2023-03-31T09:36:27;24.43;;;4.97;;
14923;SDS011;7554;43.600;1.480;2023-03-31T09:38:55;22.17;;;4.43;;
14923;SDS011;7554;43.600;1.480;2023-03-31T09:41:23;24.73;;;5.03;;
14923;SDS011;7554;43.600;1.480;2023-03-31T09:43:51;30.83;;;5.80;;
14923;SDS011;7554;43.600;1.480;2023-03-31T09:46:28;28.00;;;5.37;;
14923;SDS011;7554;43.600;1.480;2023-03-31T09:48:59;23.23;;;5.13;;
14923;SDS011;7554;43.600;1.480;2023-03-31T09:51:31;24.37;;;6.20;;
14923;SDS011;7554;43.600;1.480;2023-03-31T09:54:01;30.27;;;6.83;;
14923;SDS011;7554;43.600;1.480;2023-03-31T09:56:45;24.80;;;6.07;;
14923;SDS011;7554;43.600;1.480;2023-03-31T09:59:16;25.30;;;5.60;;
14923;SDS011;7554;43.600;1.480;2023-03-31T10:01:46;27.27;;;5.40;;
14923;SDS011;7554;43.600;1.480;2023-03-31T10:04:17;33.37;;;5.10;;
14923;SDS011;7554;43.600;1.480;2023-03-31T10:06:48;33.27;;;11.50;;
14923;SDS011;7554;43.600;1.480;2023-03-31T10:09:16;32.93;;;10.23;;
14923;SDS011;7554;43.600;1.480;2023-03-31T10:11:54;24.33;;;5.63;;
14923;SDS011;7554;43.600;1.480;2023-03-31T10:14:23;28.17;;;5.33;;
14923;SDS011;7554;43.600;1.480;2023-03-31T10:16:52;30.33;;;5.57;;
14923;SDS011;7554;43.600;1.480;2023-03-31T10:19:22;25.93;;;5.40;;
14923;SDS011;7554;43.600;1.480;2023-03-31T10:21:54;27.40;;;5.30;;
14923;SDS011;7554;43.600;1.480;2023-03-31T10:24:23;23.10;;;4.87;;
14923;SDS011;7554;43.600;1.480;2023-03-31T10:26:52;24.47;;;5.03;;
14923;SDS011;7554;43.600;1.480;2023-03-31T10:29:25;25.77;;;5.27;;
14923;SDS011;7554;43.600;1.480;2023-03-31T10:32:00;19.80;;;5.80;;
14923;SDS011;7554;43.600;1.480;2023-03-31T10:34:30;23.40;;;4.50;;
14923;SDS011;7554;43.600;1.480;2023-03-31T10:36:57;19.27;;;4.67;;
14923;SDS011;7554;43.600;1.480;2023-03-31T10:39:27;23.57;;;5.70;;
14923;SDS011;7554;43.600;1.480;2023-03-31T10:41:58;22.03;;;5.17;;
14923;SDS011;7554;43.600;1.480;2023-03-31T10:44:30;26.33;;;5.90;;
14923;SDS011;7554;43.600;1.480;2023-03-31T10:47:02;21.93;;;4.87;;
14923;SDS011;7554;43.600;1.480;2023-03-31T10:49:36;22.63;;;4.77;;
14923;SDS011;7554;43.600;1.480;2023-03-31T10:52:13;23.93;;;4.93;;
14923;SDS011;7554;43.600;1.480;2023-03-31T10:54:46;20.30;;;5.57;;
14923;SDS011;7554;43.600;1.480;2023-03-31T10:57:16;20.57;;;5.87;;
14923;SDS011;7554;43.600;1.480;2023-03-31T10:59:49;24.10;;;5.37;;
14923;SDS011;7554;43.600;1.480;2023-03-31T11:02:35;23.27;;;5.40;;
14923;SDS011;7554;43.600;1.480;2023-03-31T11:05:14;18.47;;;5.57;;
14923;SDS011;7554;43.600;1.480;2023-03-31T11:07:49;20.17;;;5.70;;
14923;SDS011;7554;43.600;1.480;2023-03-31T11:10:41;25.93;;;8.23;;
14923;SDS011;7554;43.600;1.480;2023-03-31T11:13:24;35.50;;;11.80;;
14923;SDS011;7554;43.600;1.480;2023-03-31T11:15:59;20.57;;;5.87;;
14923;SDS011;7554;43.600;1.480;2023-03-31T11:18:46;21.93;;;5.70;;
14923;SDS011;7554;43.600;1.480;2023-03-31T11:21:36;24.27;;;6.37;;
14923;SDS011;7554;43.600;1.480;2023-03-31T11:24:14;22.60;;;6.60;;
14923;SDS011;7554;43.600;1.480;2023-03-31T11:26:51;28.60;;;7.47;;
14923;SDS011;7554;43.600;1.480;2023-03-31T11:29:31;22.93;;;6.73;;
14923;SDS011;7554;43.600;1.480;2023-03-31T11:35:01;20.10;;;6.10;;
14923;SDS011;7554;43.600;1.480;2023-03-31T11:37:51;18.57;;;5.73;;
14923;SDS011;7554;43.600;1.480;2023-03-31T11:43:23;19.97;;;5.80;;
14923;SDS011;7554;43.600;1.480;2023-03-31T11:45:57;19.40;;;5.50;;
14923;SDS011;7554;43.600;1.480;2023-03-31T11:48:32;19.87;;;5.80;;
14923;SDS011;7554;43.600;1.480;2023-03-31T11:51:06;25.20;;;5.77;;
14923;SDS011;7554;43.600;1.480;2023-03-31T11:53:40;21.93;;;5.17;;
14923;SDS011;7554;43.600;1.480;2023-03-31T11:56:10;24.40;;;5.73;;
14923;SDS011;7554;43.600;1.480;2023-03-31T11:58:40;19.43;;;5.97;;
14923;SDS011;7554;43.600;1.480;2023-03-31T12:01:15;29.63;;;6.07;;
14923;SDS011;7554;43.600;1.480;2023-03-31T12:03:51;18.87;;;8.20;;
14923;SDS011;7554;43.600;1.480;2023-03-31T12:06:23;19.37;;;6.33;;
14923;SDS011;7554;43.600;1.480;2023-03-31T12:09:00;19.17;;;5.07;;
14923;SDS011;7554;43.600;1.480;2023-03-31T12:11:37;16.40;;;4.40;;
14923;SDS011;7554;43.600;1.480;2023-03-31T12:14:20;12.60;;;4.53;;
14923;SDS011;7554;43.600;1.480;2023-03-31T12:16:54;16.07;;;4.53;;
14923;SDS011;7554;43.600;1.480;2023-03-31T12:19:27;15.27;;;4.60;;
14923;SDS011;7554;43.600;1.480;2023-03-31T12:22:03;17.33;;;4.80;;
14923;SDS011;7554;43.600;1.480;2023-03-31T12:24:36;14.33;;;5.27;;
14923;SDS011;7554;43.600;1.480;2023-03-31T12:27:04;15.57;;;4.87;;
14923;SDS011;7554;43.600;1.480;2023-03-31T12:29:38;14.97;;;4.87;;
14923;SDS011;7554;43.600;1.480;2023-03-31T12:32:10;18.83;;;4.97;;
14923;SDS011;7554;43.600;1.480;2023-03-31T12:34:42;19.33;;;4.73;;
14923;SDS011;7554;43.600;1.480;2023-03-31T12:37:28;17.47;;;4.23;;
14923;SDS011;7554;43.600;1.480;2023-03-31T12:40:16;16.50;;;4.07;;
14923;SDS011;7554;43.600;1.480;2023-03-31T12:42:53;18.17;;;4.33;;
14923;SDS011;7554;43.600;1.480;2023-03-31T12:45:28;16.67;;;3.83;;
14923;SDS011;7554;43.600;1.480;2023-03-31T12:48:02;17.13;;;4.33;;
14923;SDS011;7554;43.600;1.480;2023-03-31T12:51:01;12.93;;;3.83;;
14923;SDS011;7554;43.600;1.480;2023-03-31T12:53:40;19.00;;;4.40;;
14923;SDS011;7554;43.600;1.480;2023-03-31T12:56:13;16.27;;;3.87;;
14923;SDS011;7554;43.600;1.480;2023-03-31T12:58:44;17.67;;;4.63;;
14923;SDS011;7554;43.600;1.480;2023-03-31T13:01:15;15.77;;;4.27;;
14923;SDS011;7554;43.600;1.480;2023-03-31T13:03:48;14.70;;;3.87;;
14923;SDS011;7554;43.600;1.480;2023-03-31T13:12:18;25.93;;;4.50;;
14923;SDS011;7554;43.600;1.480;2023-03-31T13:14:47;23.37;;;4.73;;
14923;SDS011;7554;43.600;1.480;2023-03-31T13:17:20;12.10;;;3.27;;
14923;SDS011;7554;43.600;1.480;2023-03-31T13:19:55;18.27;;;4.27;;
14923;SDS011;7554;43.600;1.480;2023-03-31T13:22:41;17.03;;;4.33;;
14923;SDS011;7554;43.600;1.480;2023-03-31T13:25:32;26.77;;;4.23;;
14923;SDS011;7554;43.600;1.480;2023-03-31T13:31:03;20.97;;;5.57;;
14923;SDS011;7554;43.600;1.480;2023-03-31T13:33:33;16.97;;;4.30;;
14923;SDS011;7554;43.600;1.480;2023-03-31T13:42:24;20.50;;;4.80;;
14923;SDS011;7554;43.600;1.480;2023-03-31T13:48:13;13.90;;;3.87;;
14923;SDS011;7554;43.600;1.480;2023-03-31T13:50:56;19.60;;;4.57;;
14923;SDS011;7554;43.600;1.480;2023-03-31T13:53:46;14.77;;;3.47;;
14923;SDS011;7554;43.600;1.480;2023-03-31T13:56:48;17.70;;;4.37;;
14923;SDS011;7554;43.600;1.480;2023-03-31T13:59:33;19.20;;;3.77;;
14923;SDS011;7554;43.600;1.480;2023-03-31T14:02:26;15.37;;;3.67;;
14923;SDS011;7554;43.600;1.480;2023-03-31T14:05:24;14.60;;;3.40;;
14923;SDS011;7554;43.600;1.480;2023-03-31T14:07:54;14.07;;;3.50;;
14923;SDS011;7554;43.600;1.480;2023-03-31T14:10:26;16.65;;;4.18;;
14923;SDS011;7554;43.600;1.480;2023-03-31T14:13:07;14.77;;;3.40;;
14923;SDS011;7554;43.600;1.480;2023-03-31T14:15:36;16.43;;;3.53;;
14923;SDS011;7554;43.600;1.480;2023-03-31T14:18:06;13.70;;;3.40;;
14923;SDS011;7554;43.600;1.480;2023-03-31T14:20:39;11.80;;;3.20;;
14923;SDS011;7554;43.600;1.480;2023-03-31T14:23:21;19.77;;;3.67;;
14923;SDS011;7554;43.600;1.480;2023-03-31T14:26:01;14.73;;;3.00;;
14923;SDS011;7554;43.600;1.480;2023-03-31T14:28:40;13.07;;;2.90;;
14923;SDS011;7554;43.600;1.480;2023-03-31T14:31:27;11.90;;;2.67;;
14923;SDS011;7554;43.600;1.480;2023-03-31T14:37:04;17.40;;;3.37;;
14923;SDS011;7554;43.600;1.480;2023-03-31T14:39:36;14.10;;;2.73;;
14923;SDS011;7554;43.600;1.480;2023-03-31T14:42:10;15.83;;;2.73;;
14923;SDS011;7554;43.600;1.480;2023-03-31T14:44:40;13.13;;;2.90;;
14923;SDS011;7554;43.600;1.480;2023-03-31T14:47:13;14.07;;;2.87;;
14923;SDS011;7554;43.600;1.480;2023-03-31T14:49:40;8.63;;;2.63;;
14923;SDS011;7554;43.600;1.480;2023-03-31T14:52:12;14.90;;;2.43;;
14923;SDS011;7554;43.600;1.480;2023-03-31T14:54:43;11.87;;;2.70;;
14923;SDS011;7554;43.600;1.480;2023-03-31T14:57:12;12.10;;;2.67;;
14923;SDS011;7554;43.600;1.480;2023-03-31T14:59:44;11.70;;;2.00;;
14923;SDS011;7554;43.600;1.480;2023-03-31T15:02:15;11.93;;;3.03;;
14923;SDS011;7554;43.600;1.480;2023-03-31T15:04:46;12.57;;;2.93;;
14923;SDS011;7554;43.600;1.480;2023-03-31T15:07:22;13.10;;;2.60;;
14923;SDS011;7554;43.600;1.480;2023-03-31T15:09:52;11.90;;;2.50;;
14923;SDS011;7554;43.600;1.480;2023-03-31T15:12:19;16.47;;;3.13;;
14923;SDS011;7554;43.600;1.480;2023-03-31T15:14:50;13.73;;;2.90;;
14923;SDS011;7554;43.600;1.480;2023-03-31T15:17:20;8.00;;;2.57;;
14923;SDS011;7554;43.600;1.480;2023-03-31T15:19:53;13.23;;;2.97;;
14923;SDS011;7554;43.600;1.480;2023-03-31T15:22:21;13.77;;;2.70;;
14923;SDS011;7554;43.600;1.480;2023-03-31T15:24:50;11.33;;;2.83;;
14923;SDS011;7554;43.600;1.480;2023-03-31T15:27:19;11.23;;;2.63;;
14923;SDS011;7554;43.600;1.480;2023-03-31T15:29:55;10.60;;;2.37;;
14923;SDS011;7554;43.600;1.480;2023-03-31T15:32:27;14.07;;;3.23;;
14923;SDS011;7554;43.600;1.480;2023-03-31T15:34:56;12.03;;;3.03;;
14923;SDS011;7554;43.600;1.480;2023-03-31T15:37:25;12.87;;;2.93;;
14923;SDS011;7554;43.600;1.480;2023-03-31T15:39:57;10.10;;;2.87;;
14923;SDS011;7554;43.600;1.480;2023-03-31T15:42:26;11.23;;;2.33;;
14923;SDS011;7554;43.600;1.480;2023-03-31T15:44:56;17.30;;;2.80;;
14923;SDS011;7554;43.600;1.480;2023-03-31T15:47:59;10.83;;;2.37;;
14923;SDS011;7554;43.600;1.480;2023-03-31T15:50:28;11.27;;;2.30;;
14923;SDS011;7554;43.600;1.480;2023-03-31T15:52:55;12.20;;;2.30;;
14923;SDS011;7554;43.600;1.480;2023-03-31T15:55:23;13.10;;;2.67;;
14923;SDS011;7554;43.600;1.480;2023-03-31T15:57:53;11.63;;;2.77;;
14923;SDS011;7554;43.600;1.480;2023-03-31T16:03:17;10.80;;;2.90;;
14923;SDS011;7554;43.600;1.480;2023-03-31T16:05:50;10.27;;;2.73;;
14923;SDS011;7554;43.600;1.480;2023-03-31T16:08:21;13.83;;;2.77;;
14923;SDS011;7554;43.600;1.480;2023-03-31T16:10:54;9.33;;;2.90;;